createdAt,value
2019-02-23T00:01:12.730Z,30.13
2019-02-23T00:03:40.692Z,30.34
2019-02-23T00:06:07.367Z,29.49
2019-02-23T00:08:34.015Z,29.88
2019-02-23T00:11:00.639Z,30.42
2019-02-23T00:13:27.478Z,29.42
2019-02-23T00:15:54.041Z,30.21
2019-02-23T00:18:20.802Z,30.36
2019-02-23T00:20:47.517Z,30.32
2019-02-23T00:23:14.455Z,30.27
2019-02-23T00:25:41.986Z,29.69
2019-02-23T00:28:08.596Z,29.84
2019-02-23T00:30:35.292Z,29.49
2019-02-23T00:33:01.991Z,29.60
2019-02-23T00:35:28.730Z,30.11
2019-02-23T00:37:55.331Z,28.98
2019-02-23T00:40:21.934Z,28.82
2019-02-23T00:42:48.817Z,28.83
2019-02-23T00:45:15.484Z,28.45
2019-02-23T00:47:42.408Z,28.90
2019-02-23T00:50:09.308Z,28.93
2019-02-23T00:52:36.062Z,29.09
2019-02-23T00:55:03.094Z,29.11
2019-02-23T00:57:30.075Z,29.14
2019-02-23T00:59:57.109Z,28.58
2019-02-23T01:02:23.759Z,28.06
2019-02-23T01:04:50.801Z,28.19
2019-02-23T01:07:17.799Z,28.02
2019-02-23T01:09:44.420Z,27.52
2019-02-23T01:12:12.327Z,26.18
2019-02-23T01:14:39.617Z,27.72
2019-02-23T01:17:06.236Z,27.64
2019-02-23T01:19:34.245Z,27.40
2019-02-23T01:22:02.055Z,26.84
2019-02-23T01:24:29.780Z,27.28
2019-02-23T01:26:56.520Z,27.09
2019-02-23T01:29:23.422Z,26.63
2019-02-23T01:31:50.232Z,26.37
2019-02-23T01:34:16.900Z,26.50
2019-02-23T01:36:43.865Z,26.13
2019-02-23T01:39:12.080Z,25.94
2019-02-23T01:41:38.818Z,25.65
2019-02-23T01:44:05.493Z,27.29
2019-02-23T01:46:33.205Z,26.43
2019-02-23T01:48:59.935Z,26.85
2019-02-23T01:51:26.595Z,26.67
2019-02-23T01:53:53.287Z,27.13
2019-02-23T01:56:21.036Z,27.15
2019-02-23T01:58:47.682Z,27.52
2019-02-23T02:01:14.460Z,25.06
2019-02-23T02:03:42.923Z,23.49
2019-02-23T02:06:09.678Z,24.74
2019-02-23T02:08:36.599Z,25.69
2019-02-23T02:11:04.282Z,26.56
2019-02-23T02:13:31.921Z,26.09
2019-02-23T02:15:58.862Z,26.66
2019-02-23T02:18:25.522Z,26.79
2019-02-23T02:20:52.216Z,26.86
2019-02-23T02:23:19.054Z,26.43
2019-02-23T02:25:45.692Z,27.51
2019-02-23T02:28:12.331Z,27.90
2019-02-23T02:30:39.298Z,27.89
2019-02-23T02:33:05.876Z,28.23
2019-02-23T02:35:33.290Z,28.42
2019-02-23T02:37:59.960Z,28.42
2019-02-23T02:40:26.649Z,28.58
2019-02-23T02:42:53.324Z,28.96
2019-02-23T02:45:19.916Z,29.63
2019-02-23T02:50:24.294Z,29.25
2019-02-23T02:52:44.363Z,29.53
2019-02-23T02:55:11.105Z,29.83
2019-02-23T02:57:37.808Z,29.70
2019-02-23T03:00:04.457Z,29.39
2019-02-23T03:02:31.735Z,29.77
2019-02-23T03:04:58.810Z,29.27
2019-02-23T03:07:25.474Z,30.05
2019-02-23T03:09:52.610Z,31.13
2019-02-23T03:12:19.628Z,31.32
2019-02-23T03:14:46.487Z,31.35
2019-02-23T03:17:14.850Z,31.31
2019-02-23T03:19:41.558Z,30.95
2019-02-23T03:22:08.448Z,30.98
2019-02-23T03:24:35.179Z,31.57
2019-02-23T03:27:01.774Z,31.76
2019-02-23T03:29:28.536Z,31.65
2019-02-23T03:31:55.489Z,31.39
2019-02-23T03:34:22.292Z,32.32
2019-02-23T03:36:48.973Z,32.61
2019-02-23T03:39:15.656Z,32.24
2019-02-23T03:41:42.554Z,32.51
2019-02-23T03:44:09.171Z,32.33
2019-02-23T03:46:36.244Z,32.46
2019-02-23T03:49:03.007Z,32.86
2019-02-23T03:51:29.882Z,32.91
2019-02-23T03:53:56.578Z,32.47
2019-02-23T03:56:23.208Z,32.37
2019-02-23T03:58:50.360Z,32.66
2019-02-23T04:01:16.989Z,34.04
2019-02-23T04:03:45.602Z,33.81
2019-02-23T04:06:12.207Z,33.66
2019-02-23T04:08:39.194Z,33.46
2019-02-23T04:11:06.221Z,32.87
2019-02-23T04:13:32.799Z,33.46
2019-02-23T04:15:59.467Z,33.00
2019-02-23T04:18:26.269Z,33.89
2019-02-23T04:21:01.142Z,33.91
2019-02-23T04:23:21.635Z,33.72
2019-02-23T04:25:49.352Z,33.85
2019-02-23T04:28:16.503Z,33.21
2019-02-23T04:30:43.597Z,33.03
2019-02-23T04:33:10.532Z,33.09
2019-02-23T04:35:37.239Z,33.30
2019-02-23T04:38:03.967Z,33.43
2019-02-23T04:40:30.635Z,33.92
2019-02-23T04:42:57.506Z,33.67
2019-02-23T04:45:24.246Z,33.59
2019-02-23T04:47:50.905Z,33.91
2019-02-23T04:50:17.793Z,33.85
2019-02-23T04:52:46.199Z,33.65
2019-02-23T04:55:12.848Z,33.88
2019-02-23T04:57:39.470Z,33.20
2019-02-23T05:00:08.668Z,33.56
2019-02-23T05:02:35.294Z,33.72
2019-02-23T05:05:02.061Z,33.92
2019-02-23T05:07:28.697Z,33.21
2019-02-23T05:09:55.425Z,33.09
2019-02-23T05:12:22.119Z,33.11
2019-02-23T05:14:48.815Z,33.21
2019-02-23T05:17:16.660Z,33.76
2019-02-23T05:19:43.377Z,33.88
2019-02-23T05:22:10.277Z,33.92
2019-02-23T05:24:36.979Z,33.59
2019-02-23T05:27:03.948Z,33.81
2019-02-23T05:29:30.721Z,34.26
2019-02-23T05:31:57.604Z,34.29
2019-02-23T05:34:24.418Z,34.33
2019-02-23T05:36:51.046Z,34.12
2019-02-23T05:39:17.940Z,33.95
2019-02-23T05:41:44.658Z,34.06
2019-02-23T05:44:11.553Z,34.05
2019-02-23T05:46:38.572Z,34.84
2019-02-23T05:49:05.414Z,35.02
2019-02-23T05:51:38.796Z,35.74
2019-02-23T05:54:00.636Z,35.18
2019-02-23T05:56:27.413Z,35.54
2019-02-23T05:58:54.005Z,35.23
2019-02-23T06:01:20.817Z,35.26
2019-02-23T06:03:47.758Z,34.85
2019-02-23T06:06:14.416Z,34.57
2019-02-23T06:08:41.118Z,34.68
2019-02-23T06:11:08.070Z,34.65
2019-02-23T06:13:35.020Z,34.97
2019-02-23T06:16:03.553Z,35.25
2019-02-23T06:18:30.451Z,35.10
2019-02-23T06:20:57.158Z,35.22
2019-02-23T06:23:24.244Z,34.70
2019-02-23T06:25:51.281Z,34.61
2019-02-23T06:28:18.191Z,34.97
2019-02-23T06:30:45.169Z,35.26
2019-02-23T06:33:11.758Z,35.95
2019-02-23T06:35:38.487Z,35.64
2019-02-23T06:38:05.382Z,35.71
2019-02-23T06:40:32.236Z,35.84
2019-02-23T06:42:58.972Z,35.77
2019-02-23T06:45:25.634Z,36.69
2019-02-23T06:47:53.688Z,36.08
2019-02-23T06:50:20.614Z,36.19
2019-02-23T06:52:48.022Z,35.94
2019-02-23T06:55:14.752Z,35.65
2019-02-23T06:57:41.687Z,35.40
2019-02-23T07:00:09.474Z,35.30
2019-02-23T07:02:36.090Z,33.16
2019-02-23T07:05:06.907Z,33.85
2019-02-23T07:07:33.879Z,32.89
2019-02-23T07:10:00.791Z,31.79
2019-02-23T07:12:27.405Z,32.07
2019-02-23T07:14:54.015Z,31.52
2019-02-23T07:17:21.013Z,29.23
2019-02-23T07:19:48.332Z,29.33
2019-02-23T07:22:15.970Z,29.79
2019-02-23T07:24:42.702Z,30.33
2019-02-23T07:27:09.386Z,29.47
2019-02-23T07:29:36.200Z,29.72
2019-02-23T07:32:03.134Z,29.35
2019-02-23T07:34:29.742Z,29.56
2019-02-23T07:36:56.400Z,29.44
2019-02-23T07:39:23.303Z,26.91
2019-02-23T07:41:50.048Z,26.40
2019-02-23T07:44:18.275Z,26.71
2019-02-23T07:46:45.020Z,25.45
2019-02-23T07:49:11.718Z,24.79
2019-02-23T07:51:38.597Z,24.23
2019-02-23T07:54:07.029Z,23.38
2019-02-23T07:56:35.156Z,23.75
2019-02-23T07:59:02.145Z,23.83
2019-02-23T08:01:28.893Z,22.38
2019-02-23T08:03:55.787Z,23.11
2019-02-23T08:06:22.698Z,24.00
2019-02-23T08:08:49.323Z,23.92
2019-02-23T08:11:16.057Z,23.97
2019-02-23T08:13:42.901Z,23.77
2019-02-23T08:16:09.899Z,23.09
2019-02-23T08:18:36.795Z,23.20
2019-02-23T08:21:03.444Z,22.84
2019-02-23T08:23:30.102Z,22.39
2019-02-23T08:25:56.984Z,20.04
2019-02-23T08:28:23.790Z,20.69
2019-02-23T08:30:50.436Z,21.40
2019-02-23T08:33:17.413Z,20.13
2019-02-23T08:35:44.245Z,20.95
2019-02-23T08:38:11.141Z,21.86
2019-02-23T08:40:37.905Z,22.38
2019-02-23T08:43:04.603Z,26.12
2019-02-23T08:45:31.291Z,27.28
2019-02-23T08:47:57.927Z,28.09
2019-02-23T08:50:24.519Z,28.33
2019-02-23T08:52:51.167Z,27.74
2019-02-23T08:55:17.850Z,28.57
2019-02-23T08:57:44.806Z,29.30
2019-02-23T09:00:11.705Z,28.68
2019-02-23T09:02:38.826Z,27.28
2019-02-23T09:05:05.776Z,27.01
2019-02-23T09:07:32.862Z,26.35
2019-02-23T09:09:59.764Z,25.80
2019-02-23T09:12:26.502Z,25.44
2019-02-23T09:14:53.161Z,24.90
2019-02-23T09:17:20.395Z,25.25
2019-02-23T09:19:47.007Z,24.20
2019-02-23T09:22:29.914Z,24.54
2019-02-23T09:24:56.615Z,24.22
2019-02-23T09:27:23.471Z,24.06
2019-02-23T09:29:50.650Z,24.37
2019-02-23T09:32:17.323Z,24.21
2019-02-23T09:34:44.135Z,23.69
2019-02-23T09:37:11.048Z,24.39
2019-02-23T09:39:37.687Z,24.22
2019-02-23T09:42:07.362Z,23.82
2019-02-23T09:44:33.237Z,23.33
2019-02-23T09:47:00.133Z,23.70
2019-02-23T09:49:26.791Z,23.32
2019-02-23T09:51:53.542Z,22.13
2019-02-23T09:54:20.806Z,22.20
2019-02-23T09:56:47.455Z,21.98
2019-02-23T09:59:14.365Z,21.57
2019-02-23T10:01:41.066Z,21.82
2019-02-23T10:04:07.898Z,21.23
2019-02-23T10:06:34.531Z,21.01
2019-02-23T10:09:01.173Z,19.97
2019-02-23T10:11:27.828Z,20.47
2019-02-23T10:13:54.662Z,20.17
2019-02-23T10:16:21.279Z,20.06
2019-02-23T10:18:48.071Z,20.02
2019-02-23T10:21:14.801Z,19.83
2019-02-23T10:23:41.673Z,17.45
2019-02-23T10:26:08.428Z,16.69
2019-02-23T10:28:35.152Z,17.63
2019-02-23T10:31:01.881Z,17.40
2019-02-23T10:33:28.590Z,18.41
2019-02-23T10:35:55.252Z,18.46
2019-02-23T10:38:22.007Z,17.81
2019-02-23T10:40:48.990Z,18.62
2019-02-23T10:43:15.730Z,18.85
2019-02-23T10:45:42.360Z,15.42
2019-02-23T10:48:12.863Z,17.22
2019-02-23T10:50:43.721Z,17.04
2019-02-23T10:53:10.321Z,15.60
2019-02-23T10:55:40.770Z,16.60
2019-02-23T10:58:09.266Z,16.55
2019-02-23T11:00:37.178Z,15.90
2019-02-23T11:03:03.839Z,16.64
2019-02-23T11:05:30.749Z,15.86
2019-02-23T11:07:57.494Z,15.40
2019-02-23T11:10:24.192Z,16.02
2019-02-23T11:12:52.023Z,16.13
2019-02-23T11:15:18.683Z,16.28
2019-02-23T11:17:45.586Z,16.26
2019-02-23T11:20:12.243Z,15.67
2019-02-23T11:22:39.293Z,14.82
2019-02-23T11:25:06.306Z,15.98
2019-02-23T11:27:33.219Z,16.05
2019-02-23T11:30:00.021Z,17.21
2019-02-23T11:32:27.199Z,16.24
2019-02-23T11:34:53.917Z,17.13
2019-02-23T11:37:22.219Z,17.97
2019-02-23T11:39:48.964Z,17.96
2019-02-23T11:42:15.889Z,17.73
2019-02-23T11:44:42.562Z,18.01
2019-02-23T11:47:09.207Z,17.27
2019-02-23T11:49:36.034Z,17.58
2019-02-23T11:52:02.635Z,17.51
2019-02-23T11:54:29.434Z,17.26
2019-02-23T11:56:56.212Z,16.95
2019-02-23T11:59:23.163Z,16.66
2019-02-23T12:01:49.934Z,17.48
2019-02-23T12:04:16.542Z,16.15
2019-02-23T12:06:43.310Z,16.84
2019-02-23T12:09:10.285Z,17.27
2019-02-23T12:11:37.154Z,17.43
2019-02-23T12:14:03.908Z,17.36
2019-02-23T12:16:30.525Z,17.27
2019-02-23T12:18:57.349Z,16.11
2019-02-23T12:21:24.010Z,16.87
2019-02-23T12:23:50.668Z,17.17
2019-02-23T12:26:17.526Z,17.28
2019-02-23T12:28:44.664Z,17.18
2019-02-23T12:31:11.955Z,15.78
2019-02-23T12:33:38.625Z,16.92
2019-02-23T12:36:05.532Z,17.48
2019-02-23T12:38:32.197Z,15.97
2019-02-23T12:40:58.799Z,16.51
2019-02-23T12:43:25.789Z,16.80
2019-02-23T12:45:53.213Z,17.29
2019-02-23T12:48:19.837Z,17.57
2019-02-23T12:50:46.713Z,18.32
2019-02-23T12:53:13.492Z,18.38
2019-02-23T12:55:40.089Z,18.61
2019-02-23T12:58:06.816Z,18.57
2019-02-23T13:00:33.515Z,18.67
2019-02-23T13:03:00.127Z,18.92
2019-02-23T13:05:27.023Z,19.01
2019-02-23T13:07:55.686Z,18.57
2019-02-23T13:10:23.466Z,17.88
2019-02-23T13:12:50.040Z,17.92
2019-02-23T13:15:16.731Z,17.64
2019-02-23T13:17:43.347Z,18.48
2019-02-23T13:20:10.163Z,18.35
2019-02-23T13:22:36.799Z,19.42
2019-02-23T13:25:03.483Z,19.30
2019-02-23T13:27:30.218Z,19.47
2019-02-23T13:29:56.865Z,19.42
2019-02-23T13:32:23.791Z,18.17
2019-02-23T13:34:50.422Z,18.33
2019-02-23T13:37:17.124Z,18.51
2019-02-23T13:39:43.804Z,18.52
2019-02-23T13:42:10.631Z,21.23
2019-02-23T13:44:37.627Z,19.72
2019-02-23T13:47:04.592Z,18.25
2019-02-23T13:49:31.472Z,19.19
2019-02-23T13:51:58.711Z,20.61
2019-02-23T13:54:25.927Z,19.03
2019-02-23T13:56:54.079Z,18.97
2019-02-23T13:59:21.319Z,19.03
2019-02-23T14:01:47.922Z,19.88
2019-02-23T14:04:14.731Z,19.88
2019-02-23T14:06:41.465Z,18.62
2019-02-23T14:09:08.094Z,19.24
2019-02-23T14:11:35.024Z,18.35
2019-02-23T14:14:01.915Z,19.81
2019-02-23T14:16:28.860Z,19.49
2019-02-23T14:18:56.014Z,19.01
2019-02-23T14:21:24.539Z,19.20
2019-02-23T14:23:51.174Z,19.32
2019-02-23T14:26:18.059Z,18.58
2019-02-23T14:28:44.974Z,18.77
2019-02-23T14:31:11.561Z,19.21
2019-02-23T14:33:38.171Z,17.84
2019-02-23T14:36:05.178Z,18.46
2019-02-23T14:38:32.116Z,17.51
2019-02-23T14:40:59.814Z,18.89
2019-02-23T14:43:26.742Z,18.82
2019-02-23T14:45:54.593Z,18.56
2019-02-23T14:48:23.848Z,19.84
2019-02-23T14:50:51.726Z,19.50
2019-02-23T14:53:18.774Z,18.96
2019-02-23T14:55:47.928Z,19.02
2019-02-23T14:58:16.554Z,18.60
2019-02-23T15:00:44.567Z,19.54
2019-02-23T15:03:15.951Z,19.70
2019-02-23T15:05:45.579Z,18.56
2019-02-23T15:08:15.788Z,19.04
2019-02-23T15:13:29.085Z,18.61
2019-02-23T15:15:58.756Z,18.65
2019-02-23T15:18:27.118Z,19.19
2019-02-23T15:20:57.399Z,19.28
2019-02-23T15:23:25.334Z,19.23
2019-02-23T15:25:52.298Z,20.07
2019-02-23T15:28:35.660Z,19.71
2019-02-23T15:30:53.141Z,19.74
2019-02-23T15:33:21.315Z,19.54
2019-02-23T15:35:48.147Z,20.03
2019-02-23T15:38:15.123Z,20.46
2019-02-23T15:40:43.014Z,19.74
2019-02-23T15:43:23.660Z,19.96
2019-02-23T15:48:40.130Z,20.56
2019-02-23T15:51:07.684Z,20.53
2019-02-23T15:53:36.792Z,20.71
2019-02-23T15:56:04.250Z,20.71
2019-02-23T15:58:38.200Z,21.22
2019-02-23T16:01:07.558Z,20.99
2019-02-23T16:06:17.325Z,21.26
2019-02-23T16:08:44.245Z,21.80
2019-02-23T16:11:10.943Z,21.62
2019-02-23T16:13:37.587Z,21.23
2019-02-23T16:16:04.430Z,21.89
2019-02-23T16:18:31.472Z,21.56
2019-02-23T16:20:58.371Z,21.92
2019-02-23T16:23:34.901Z,22.00
2019-02-23T16:25:55.869Z,22.15
2019-02-23T16:28:22.522Z,21.81
2019-02-23T16:30:49.237Z,22.01
2019-02-23T16:33:15.916Z,21.94
2019-02-23T16:35:42.658Z,22.30
2019-02-23T16:38:09.522Z,22.25
2019-02-23T16:40:36.215Z,22.82
2019-02-23T16:43:02.884Z,22.68
2019-02-23T16:45:29.780Z,23.23
2019-02-23T16:47:57.056Z,22.75
2019-02-23T16:50:23.942Z,23.15
2019-02-23T16:52:50.967Z,23.29
2019-02-23T16:55:18.188Z,23.72
2019-02-23T16:57:45.033Z,23.82
2019-02-23T17:00:30.019Z,23.84
2019-02-23T17:02:57.207Z,24.00
2019-02-23T17:05:24.057Z,24.12
2019-02-23T17:07:50.646Z,24.00
2019-02-23T17:10:17.425Z,24.08
2019-02-23T17:12:44.173Z,24.35
2019-02-23T17:15:11.129Z,24.38
2019-02-23T17:17:37.774Z,24.48
2019-02-23T17:20:04.595Z,24.36
2019-02-23T17:22:32.023Z,24.55
2019-02-23T17:24:58.856Z,24.64
2019-02-23T17:27:35.782Z,24.69
2019-02-23T17:29:54.092Z,24.71
2019-02-23T17:32:21.048Z,24.95
2019-02-23T17:34:47.718Z,24.97
2019-02-23T17:37:14.451Z,25.06
2019-02-23T17:39:41.150Z,25.22
2019-02-23T17:42:09.572Z,25.03
2019-02-23T17:44:36.456Z,25.00
2019-02-23T17:47:03.761Z,24.83
2019-02-23T17:49:30.419Z,24.88
2019-02-23T17:51:57.228Z,25.33
2019-02-23T17:54:23.946Z,25.76
2019-02-23T17:56:50.659Z,26.08
2019-02-23T17:59:17.314Z,26.34
2019-02-23T18:01:44.061Z,26.42
2019-02-23T18:04:10.755Z,26.57
2019-02-23T18:06:37.588Z,26.68
2019-02-23T18:09:05.237Z,26.41
2019-02-23T18:11:31.885Z,26.37
2019-02-23T18:13:58.547Z,26.99
2019-02-23T18:16:25.177Z,27.01
2019-02-23T18:18:51.905Z,26.65
2019-02-23T18:21:18.663Z,26.67
2019-02-23T18:23:45.745Z,26.81
2019-02-23T18:26:18.990Z,26.97
2019-02-23T18:28:41.021Z,27.54
2019-02-23T18:31:07.897Z,27.96
2019-02-23T18:33:34.898Z,27.87
2019-02-23T18:36:01.826Z,27.96
2019-02-23T18:38:28.756Z,27.80
2019-02-23T18:40:55.411Z,28.10
2019-02-23T18:43:22.365Z,27.91
2019-02-23T18:45:49.010Z,28.39
2019-02-23T18:48:15.846Z,28.34
2019-02-23T18:50:42.452Z,28.06
2019-02-23T18:53:14.151Z,28.19
2019-02-23T18:55:41.418Z,28.82
2019-02-23T18:58:08.270Z,28.96
2019-02-23T19:00:35.010Z,29.04
2019-02-23T19:03:01.939Z,29.23
2019-02-23T19:05:28.637Z,29.32
2019-02-23T19:07:55.372Z,29.62
2019-02-23T19:10:22.271Z,29.80
2019-02-23T19:12:49.222Z,29.90
2019-02-23T19:15:16.612Z,29.81
2019-02-23T19:17:43.272Z,30.00
2019-02-23T19:20:10.692Z,30.15
2019-02-23T19:22:37.384Z,29.97
2019-02-23T19:25:04.334Z,29.98
2019-02-23T19:27:30.883Z,29.87
2019-02-23T19:29:57.547Z,29.93
2019-02-23T19:32:24.499Z,30.06
2019-02-23T19:34:51.397Z,30.40
2019-02-23T19:37:18.089Z,30.60
2019-02-23T19:39:44.880Z,30.55
2019-02-23T19:42:11.484Z,30.57
2019-02-23T19:44:39.744Z,30.61
2019-02-23T19:47:17.948Z,30.71
2019-02-23T19:49:46.531Z,31.08
2019-02-23T19:52:14.939Z,31.24
2019-02-23T19:54:59.441Z,31.48
2019-02-23T19:57:27.893Z,31.46
2019-02-23T20:00:05.612Z,31.61
2019-02-23T20:02:32.931Z,31.68
2019-02-23T20:04:59.738Z,31.64
2019-02-23T20:07:26.358Z,31.71
2019-02-23T20:09:53.003Z,31.89
2019-02-23T20:12:19.762Z,32.12
2019-02-23T20:14:46.444Z,31.91
2019-02-23T20:17:13.039Z,32.24
2019-02-23T20:19:41.186Z,32.43
2019-02-23T20:22:07.940Z,32.65
2019-02-23T20:24:36.781Z,32.70
2019-02-23T20:27:03.454Z,32.75
2019-02-23T20:29:30.424Z,32.86
2019-02-23T20:31:57.062Z,33.00
2019-02-23T20:34:23.980Z,33.26
2019-02-23T20:36:50.722Z,33.23
2019-02-23T20:39:17.387Z,32.97
2019-02-23T20:41:44.098Z,32.95
2019-02-23T20:44:11.757Z,33.13
2019-02-23T20:46:38.574Z,33.26
2019-02-23T20:49:05.256Z,33.30
2019-02-23T20:51:32.178Z,33.25
2019-02-23T20:53:58.820Z,33.86
2019-02-23T20:56:25.509Z,34.36
2019-02-23T20:58:52.376Z,34.35
2019-02-23T21:01:19.649Z,34.18
2019-02-23T21:03:46.593Z,34.36
2019-02-23T21:06:13.707Z,34.46
2019-02-23T21:08:42.340Z,34.34
2019-02-23T21:11:09.107Z,34.31
2019-02-23T21:13:35.775Z,34.32
2019-02-23T21:16:02.583Z,34.57
2019-02-23T21:18:29.692Z,34.44
2019-02-23T21:20:56.574Z,34.67
2019-02-23T21:23:23.201Z,34.60
2019-02-23T21:25:49.891Z,34.55
2019-02-23T21:28:16.590Z,34.47
2019-02-23T21:30:43.252Z,34.40
2019-02-23T21:33:09.840Z,34.66
2019-02-23T21:35:37.034Z,35.00
2019-02-23T21:38:03.904Z,35.30
2019-02-23T21:40:30.815Z,35.70
2019-02-23T21:42:58.102Z,35.87
2019-02-23T21:45:24.826Z,35.73
2019-02-23T21:47:51.746Z,35.81
2019-02-23T21:50:18.362Z,35.81
2019-02-23T21:52:47.393Z,35.84
2019-02-23T21:55:13.984Z,35.88
2019-02-23T21:57:42.453Z,35.80
2019-02-23T22:00:09.245Z,35.94
2019-02-23T22:02:36.026Z,35.93
2019-02-23T22:05:11.634Z,36.33
2019-02-23T22:07:31.349Z,36.25
2019-02-23T22:09:58.102Z,36.59
2019-02-23T22:12:25.053Z,36.52
2019-02-23T22:14:52.372Z,36.55
2019-02-23T22:17:19.258Z,36.63
2019-02-23T22:19:46.239Z,36.66
2019-02-23T22:22:13.189Z,36.51
2019-02-23T22:24:40.165Z,36.60
2019-02-23T22:27:07.077Z,36.63
2019-02-23T22:29:33.771Z,36.88
2019-02-23T22:32:00.421Z,37.16
2019-02-23T22:34:27.388Z,37.43
2019-02-23T22:36:54.611Z,37.35
2019-02-23T22:39:21.486Z,37.34
2019-02-23T22:41:49.865Z,37.40
2019-02-23T22:44:16.688Z,37.26
2019-02-23T22:46:43.458Z,37.43
2019-02-23T22:49:10.559Z,37.69
2019-02-23T22:51:37.875Z,38.35
2019-02-23T22:54:04.702Z,38.31
2019-02-23T22:56:31.613Z,38.21
2019-02-23T22:58:58.837Z,38.85
2019-02-23T23:01:25.680Z,38.55
2019-02-23T23:03:53.063Z,38.74
2019-02-23T23:06:19.792Z,38.51
2019-02-23T23:08:46.669Z,38.45
2019-02-23T23:11:13.872Z,38.75
2019-02-23T23:13:40.807Z,39.08
2019-02-23T23:16:07.937Z,38.83
2019-02-23T23:18:34.783Z,38.73
2019-02-23T23:21:01.734Z,38.63
2019-02-23T23:23:28.705Z,39.11
2019-02-23T23:25:55.901Z,39.14
2019-02-23T23:28:23.305Z,39.06
2019-02-23T23:30:49.963Z,39.15
2019-02-23T23:33:16.818Z,40.06
2019-02-23T23:35:43.911Z,40.83
2019-02-23T23:38:10.807Z,40.27
2019-02-23T23:40:37.686Z,40.07
2019-02-23T23:43:04.368Z,40.01
2019-02-23T23:45:31.052Z,39.97
2019-02-23T23:47:58.076Z,40.18
2019-02-23T23:50:25.078Z,39.91
2019-02-23T23:52:52.108Z,40.22
2019-02-23T23:55:20.951Z,40.12
2019-02-23T23:57:47.623Z,40.84
